Terminal Aerodrome Forecast
Issued by NWS Topeka, KS

Home | Current Version | Previous Version | Graphics & Text | Print | Product List | Glossary On
Versions: 1 2 3 4 5 6 7 8 9 10 11 12 13 14 15 16
637
FTUS43 KTOP 021135
TAFTOP
TAF
KTOP 021135Z 0212/0312 34006KT P6SM OVC040
     FM021600 34008KT P6SM VCSH BKN040
     FM022000 34005KT P6SM SCT050=

USA.gov is the U.S. government's official web portal to all federal, state and local government web resources and services.